createdAt,value
2022-12-19T00:01:37.245Z,19.07
2022-12-19T00:04:08.831Z,18.87
2022-12-19T00:06:38.011Z,15.63
2022-12-19T00:09:11.197Z,21.97
2022-12-19T00:11:38.887Z,18.17
2022-12-19T00:14:07.002Z,19.33
2022-12-19T00:16:33.875Z,18.93
2022-12-19T00:19:01.953Z,20.73
2022-12-19T00:21:31.400Z,20.57
2022-12-19T00:24:03.119Z,18.97
2022-12-19T00:26:35.654Z,22.33
2022-12-19T00:29:08.653Z,19.97
2022-12-19T00:31:38.779Z,21.07
2022-12-19T00:34:06.564Z,32.07
2022-12-19T00:36:34.708Z,24.00
2022-12-19T00:39:07.747Z,21.83
2022-12-19T00:41:37.129Z,26.77
2022-12-19T00:44:07.297Z,29.23
2022-12-19T00:46:35.233Z,29.73
2022-12-19T00:49:03.649Z,27.50
2022-12-19T00:51:33.228Z,31.07
2022-12-19T00:54:01.437Z,26.23
2022-12-19T00:56:37.070Z,21.23
2022-12-19T00:59:07.274Z,19.43
2022-12-19T01:01:37.528Z,20.87
2022-12-19T01:06:54.454Z,24.57
2022-12-19T01:09:32.493Z,25.37
2022-12-19T01:12:18.390Z,23.30
2022-12-19T01:14:45.697Z,25.17
2022-12-19T01:17:12.603Z,24.57
2022-12-19T01:19:44.016Z,19.50
2022-12-19T01:22:14.431Z,25.50
2022-12-19T01:24:41.697Z,30.63
2022-12-19T01:27:09.195Z,20.80
2022-12-19T01:29:37.191Z,19.27
2022-12-19T01:32:12.640Z,18.20
2022-12-19T01:34:39.465Z,18.70
2022-12-19T01:37:06.469Z,20.27
2022-12-19T01:39:33.124Z,19.63
2022-12-19T01:42:01.712Z,18.83
2022-12-19T01:44:28.459Z,16.97
2022-12-19T01:47:00.188Z,17.97
2022-12-19T01:49:37.168Z,18.23
2022-12-19T01:52:07.879Z,18.90
2022-12-19T01:54:40.862Z,19.37
2022-12-19T01:57:12.278Z,18.70
2022-12-19T01:59:46.165Z,18.27
2022-12-19T02:02:24.007Z,18.53
2022-12-19T02:04:51.089Z,20.90
2022-12-19T02:07:20.165Z,18.40
2022-12-19T02:09:56.591Z,16.87
2022-12-19T02:12:38.070Z,17.57
2022-12-19T02:15:08.228Z,17.03
2022-12-19T02:17:52.598Z,18.90
2022-12-19T02:20:29.350Z,18.67
2022-12-19T02:23:03.352Z,19.83
2022-12-19T02:25:36.302Z,18.83
2022-12-19T02:28:33.984Z,18.20
2022-12-19T02:31:26.100Z,18.57
2022-12-19T02:34:02.593Z,17.73
2022-12-19T02:36:33.985Z,19.47
2022-12-19T02:39:27.731Z,20.00
2022-12-19T02:41:58.885Z,17.70
2022-12-19T02:44:40.623Z,19.13
2022-12-19T02:47:10.291Z,16.23
2022-12-19T02:49:39.345Z,17.87
2022-12-19T02:52:34.424Z,18.67
2022-12-19T02:55:06.540Z,18.87
2022-12-19T02:58:09.369Z,19.37
2022-12-19T03:00:51.383Z,17.37
2022-12-19T03:03:35.672Z,18.73
2022-12-19T03:06:30.095Z,16.70
2022-12-19T03:09:08.755Z,17.70
2022-12-19T03:11:39.557Z,17.33
2022-12-19T03:14:11.507Z,18.93
2022-12-19T03:16:38.588Z,18.57
2022-12-19T03:19:10.790Z,17.47
2022-12-19T03:21:44.445Z,19.00
2022-12-19T03:24:13.060Z,17.57
2022-12-19T03:26:55.487Z,17.90
2022-12-19T03:29:33.055Z,17.23
2022-12-19T03:32:03.185Z,17.67
2022-12-19T03:34:42.569Z,18.03
2022-12-19T03:37:17.354Z,18.10
2022-12-19T03:39:49.044Z,18.70
2022-12-19T03:42:36.058Z,17.17
2022-12-19T03:45:06.764Z,18.37
2022-12-19T03:47:51.066Z,20.07
2022-12-19T03:50:18.823Z,18.07
2022-12-19T03:53:05.674Z,17.97
2022-12-19T03:55:41.886Z,18.57
2022-12-19T03:58:16.975Z,19.40
2022-12-19T04:00:50.003Z,18.40
2022-12-19T04:03:19.364Z,18.30
2022-12-19T04:05:48.502Z,18.73
2022-12-19T04:08:16.784Z,19.93
2022-12-19T04:10:58.002Z,18.63
2022-12-19T04:13:46.736Z,17.90
2022-12-19T04:16:39.897Z,20.33
2022-12-19T04:19:16.857Z,18.73
2022-12-19T04:21:57.000Z,17.83
2022-12-19T04:24:30.963Z,18.83
2022-12-19T04:27:02.545Z,19.97
2022-12-19T04:29:33.162Z,18.63
2022-12-19T04:32:03.118Z,18.37
2022-12-19T04:34:33.452Z,17.50
2022-12-19T04:37:03.684Z,17.77
2022-12-19T04:39:30.503Z,20.13
2022-12-19T04:41:58.321Z,20.10
2022-12-19T04:44:25.093Z,19.53
2022-12-19T04:46:51.858Z,18.00
2022-12-19T04:49:18.747Z,18.20
2022-12-19T04:51:45.996Z,18.23
2022-12-19T04:54:13.394Z,19.40
2022-12-19T04:56:40.096Z,18.80
2022-12-19T04:59:06.787Z,16.90
2022-12-19T05:01:33.576Z,18.73
2022-12-19T05:04:04.424Z,16.13
2022-12-19T05:06:32.390Z,18.63
2022-12-19T05:08:59.073Z,17.07
2022-12-19T05:11:26.187Z,17.37
2022-12-19T05:13:53.020Z,17.37
2022-12-19T05:16:19.816Z,17.80
2022-12-19T05:18:46.636Z,16.27
2022-12-19T05:21:14.182Z,17.67
2022-12-19T05:23:41.758Z,15.90
2022-12-19T05:26:11.590Z,14.47
2022-12-19T05:28:38.647Z,16.43
2022-12-19T05:31:10.985Z,14.33
2022-12-19T05:33:40.014Z,14.50
2022-12-19T05:36:08.459Z,13.50
2022-12-19T05:38:36.322Z,15.63
2022-12-19T05:41:12.278Z,15.10
2022-12-19T05:43:42.883Z,14.97
2022-12-19T05:46:09.633Z,15.67
2022-12-19T05:48:36.984Z,15.60
2022-12-19T05:51:04.203Z,15.53
2022-12-19T05:53:31.097Z,15.23
2022-12-19T05:56:16.255Z,16.10
2022-12-19T05:58:45.210Z,15.87
2022-12-19T06:01:20.418Z,44.37
2022-12-19T06:03:47.907Z,19.40
2022-12-19T06:06:20.237Z,27.77
2022-12-19T06:08:47.746Z,21.50
2022-12-19T06:11:14.900Z,19.83
2022-12-19T06:13:42.090Z,18.37
2022-12-19T06:16:21.488Z,17.23
2022-12-19T06:18:48.321Z,16.83
2022-12-19T06:21:20.652Z,14.90
2022-12-19T06:23:47.839Z,14.90
2022-12-19T06:26:19.936Z,15.27
2022-12-19T06:28:51.783Z,13.53
2022-12-19T06:31:20.610Z,14.60
2022-12-19T06:33:47.323Z,17.43
2022-12-19T06:36:16.430Z,20.60
2022-12-19T06:38:44.197Z,15.67
2022-12-19T06:41:29.665Z,15.97
2022-12-19T06:44:05.853Z,17.73
2022-12-19T06:46:33.472Z,15.00
2022-12-19T06:49:00.590Z,14.63
2022-12-19T06:51:28.026Z,16.90
2022-12-19T06:53:55.634Z,16.43
2022-12-19T06:56:22.381Z,17.67
2022-12-19T06:58:49.590Z,16.63
2022-12-19T07:01:25.344Z,15.50
2022-12-19T07:03:52.508Z,16.00
2022-12-19T07:06:19.201Z,17.10
2022-12-19T07:08:45.923Z,16.83
2022-12-19T07:11:13.378Z,17.80
2022-12-19T07:13:40.096Z,19.17
2022-12-19T07:16:08.475Z,19.23
2022-12-19T07:18:38.183Z,18.27
2022-12-19T07:21:06.992Z,17.67
2022-12-19T07:23:34.747Z,16.13
2022-12-19T07:26:01.741Z,16.60
2022-12-19T07:28:36.127Z,17.40
2022-12-19T07:31:02.917Z,16.13
2022-12-19T07:33:30.218Z,16.63
2022-12-19T07:35:57.282Z,15.73
2022-12-19T07:38:25.540Z,16.60
2022-12-19T07:40:52.573Z,15.17
2022-12-19T07:43:19.244Z,16.20
2022-12-19T07:45:46.029Z,15.67
2022-12-19T07:48:14.272Z,15.93
2022-12-19T07:50:41.786Z,16.67
2022-12-19T07:53:08.474Z,15.03
2022-12-19T07:55:35.186Z,15.83
2022-12-19T07:58:01.977Z,16.23
2022-12-19T08:00:29.233Z,17.20
2022-12-19T08:02:56.318Z,14.90
2022-12-19T08:05:23.104Z,15.67
2022-12-19T08:07:55.190Z,14.87
2022-12-19T08:10:22.955Z,15.73
2022-12-19T08:12:49.736Z,15.13
2022-12-19T08:15:16.451Z,15.80
2022-12-19T08:17:44.398Z,14.87
2022-12-19T08:20:11.731Z,15.03
2022-12-19T08:22:38.450Z,15.03
2022-12-19T08:25:07.062Z,15.77
2022-12-19T08:27:34.845Z,14.27
2022-12-19T08:30:01.580Z,13.83
2022-12-19T08:32:29.531Z,13.27
2022-12-19T08:34:56.869Z,14.77
2022-12-19T08:37:30.711Z,14.77
2022-12-19T08:39:59.114Z,16.10
2022-12-19T08:42:26.282Z,17.13
2022-12-19T08:44:53.341Z,16.23
2022-12-19T08:47:20.093Z,16.73
2022-12-19T08:49:46.884Z,16.73
2022-12-19T08:52:14.769Z,15.73
2022-12-19T08:54:44.600Z,16.87
2022-12-19T08:57:11.897Z,14.40
2022-12-19T08:59:38.815Z,13.30
2022-12-19T09:02:07.262Z,14.50
2022-12-19T09:05:58.786Z,14.77
2022-12-19T09:10:38.185Z,13.27
2022-12-19T09:13:05.887Z,12.93
2022-12-19T09:15:32.663Z,12.27
2022-12-19T09:18:00.010Z,11.67
2022-12-19T09:20:29.473Z,11.67
2022-12-19T09:22:56.541Z,11.47
2022-12-19T09:25:23.842Z,9.10
2022-12-19T09:28:26.040Z,10.30
2022-12-19T09:30:37.593Z,8.97
2022-12-19T09:33:05.016Z,7.73
2022-12-19T09:35:31.971Z,7.50
2022-12-19T09:38:00.724Z,7.33
2022-12-19T09:40:31.418Z,7.43
2022-12-19T09:43:06.340Z,7.43
2022-12-19T09:46:19.051Z,7.80
2022-12-19T09:48:55.129Z,7.57
2022-12-19T09:51:38.672Z,9.10
2022-12-19T09:54:13.023Z,10.07
2022-12-19T09:56:46.435Z,8.97
2022-12-19T09:59:41.597Z,10.47
2022-12-19T10:02:31.830Z,10.20
2022-12-19T10:05:17.913Z,10.00
2022-12-19T10:08:09.558Z,10.40
2022-12-19T10:12:38.217Z,11.33
2022-12-19T10:13:51.635Z,10.97
2022-12-19T10:16:30.400Z,10.63
2022-12-19T10:19:16.513Z,10.67
2022-12-19T10:22:17.912Z,10.53
2022-12-19T10:25:00.037Z,9.30
2022-12-19T10:27:59.645Z,10.63
2022-12-19T10:30:32.226Z,9.60
2022-12-19T10:33:19.787Z,10.20
2022-12-19T10:35:53.148Z,10.70
2022-12-19T10:38:49.065Z,9.90
2022-12-19T10:41:29.171Z,8.90
2022-12-19T10:44:10.977Z,9.17
2022-12-19T10:46:40.770Z,10.50
2022-12-19T10:49:18.460Z,10.00
2022-12-19T10:52:05.339Z,9.90
2022-12-19T10:54:41.781Z,9.73
2022-12-19T10:57:18.372Z,8.83
2022-12-19T11:00:02.925Z,10.03
2022-12-19T11:02:38.720Z,9.67
2022-12-19T11:05:22.752Z,8.90
2022-12-19T11:08:08.346Z,10.70
2022-12-19T11:11:54.967Z,9.70
2022-12-19T11:16:45.632Z,10.70
2022-12-19T11:21:06.095Z,10.27
2022-12-19T11:29:26.084Z,12.97
2022-12-19T11:29:38.302Z,12.40
2022-12-19T11:30:45.739Z,15.83
2022-12-19T11:30:47.664Z,13.03
2022-12-19T11:34:04.578Z,16.73
2022-12-19T11:36:35.401Z,14.53
2022-12-19T11:39:04.357Z,16.43
2022-12-19T11:41:47.391Z,12.13
2022-12-19T11:44:29.937Z,12.53
2022-12-19T11:47:19.465Z,13.53
2022-12-19T11:49:52.351Z,11.70
2022-12-19T11:53:05.130Z,12.47
2022-12-19T11:55:47.421Z,11.83
2022-12-19T11:58:14.439Z,11.40
2022-12-19T12:01:02.856Z,11.10
2022-12-19T12:03:59.218Z,10.77
2022-12-19T12:06:46.709Z,11.90
2022-12-19T12:13:36.194Z,11.27
2022-12-19T12:15:57.701Z,10.43
2022-12-19T12:25:27.640Z,12.90
2022-12-19T12:29:48.331Z,11.70
2022-12-19T12:31:10.656Z,11.97
2022-12-19T12:31:42.137Z,13.73
2022-12-19T12:31:59.017Z,12.53
2022-12-19T12:35:56.310Z,11.20
2022-12-19T12:38:24.345Z,11.37
2022-12-19T12:40:52.019Z,12.07
2022-12-19T12:43:24.534Z,11.57
2022-12-19T12:45:51.285Z,13.27
2022-12-19T12:48:26.436Z,13.90
2022-12-19T12:50:56.053Z,13.30
2022-12-19T12:53:33.052Z,11.80
2022-12-19T12:56:06.559Z,10.27
2022-12-19T12:58:50.915Z,10.20
2022-12-19T13:01:37.612Z,11.77
2022-12-19T13:04:21.779Z,11.63
2022-12-19T13:07:23.413Z,11.53
2022-12-19T13:10:05.963Z,10.93
2022-12-19T13:12:51.978Z,11.50
2022-12-19T13:15:27.797Z,11.00
2022-12-19T13:17:54.945Z,11.63
2022-12-19T13:20:25.219Z,12.33
2022-12-19T13:23:00.316Z,13.43
2022-12-19T13:25:27.086Z,14.80
2022-12-19T13:28:03.692Z,13.27
2022-12-19T13:30:54.315Z,14.00
2022-12-19T13:33:20.352Z,12.37
2022-12-19T13:36:32.957Z,12.80
2022-12-19T13:39:55.430Z,11.13
2022-12-19T13:42:02.504Z,11.70
2022-12-19T13:44:32.510Z,12.20
2022-12-19T13:46:59.270Z,13.50
2022-12-19T13:49:34.852Z,12.40
2022-12-19T13:52:04.701Z,12.93
2022-12-19T13:54:38.658Z,12.63
2022-12-19T13:57:23.005Z,11.50
2022-12-19T14:00:00.303Z,11.53
2022-12-19T14:02:45.037Z,12.03
2022-12-19T14:06:16.561Z,12.10
2022-12-19T14:08:28.595Z,11.30
2022-12-19T14:11:33.616Z,12.67
2022-12-19T14:14:17.663Z,12.70
2022-12-19T14:16:49.124Z,12.13
2022-12-19T14:19:26.398Z,12.93
2022-12-19T14:22:11.380Z,12.10
2022-12-19T14:24:41.992Z,11.40
2022-12-19T14:28:24.583Z,13.17
2022-12-19T14:30:29.740Z,12.87
2022-12-19T14:33:43.820Z,12.83
2022-12-19T14:36:10.401Z,11.50
2022-12-19T14:39:22.027Z,11.90
2022-12-19T14:42:01.817Z,11.87
2022-12-19T14:51:51.772Z,12.47
2022-12-19T14:54:10.121Z,12.13
2022-12-19T14:54:21.704Z,11.93
2022-12-19T14:54:39.879Z,11.43
2022-12-19T14:56:53.953Z,11.60
2022-12-19T14:59:29.504Z,12.30
2022-12-19T15:02:03.184Z,12.03
2022-12-19T15:04:51.396Z,11.40
2022-12-19T15:07:33.607Z,13.33
2022-12-19T15:11:07.399Z,13.50
2022-12-19T15:14:55.131Z,13.20
2022-12-19T15:16:23.237Z,13.53
2022-12-19T15:18:51.047Z,13.27
2022-12-19T15:21:17.987Z,14.43
2022-12-19T15:23:45.976Z,15.07
2022-12-19T15:26:16.549Z,14.23
2022-12-19T15:28:52.900Z,15.63
2022-12-19T15:31:40.469Z,16.00
2022-12-19T15:34:48.347Z,14.57
2022-12-19T15:37:14.565Z,16.00
2022-12-19T15:39:43.075Z,16.80
2022-12-19T15:42:22.818Z,17.40
2022-12-19T15:44:51.835Z,18.70
2022-12-19T15:47:39.275Z,16.90
2022-12-19T15:50:18.749Z,16.73
2022-12-19T15:52:45.769Z,18.17
2022-12-19T15:55:15.087Z,19.30
2022-12-19T15:57:46.673Z,28.03
2022-12-19T16:00:25.399Z,24.90
2022-12-19T16:03:23.470Z,24.17
2022-12-19T16:05:42.103Z,20.13
2022-12-19T16:08:27.135Z,18.07
2022-12-19T16:11:01.457Z,18.50
2022-12-19T16:13:35.749Z,20.30
2022-12-19T16:16:11.147Z,19.93
2022-12-19T16:18:43.017Z,32.73
2022-12-19T16:21:31.623Z,23.53
2022-12-19T16:24:01.061Z,24.53
2022-12-19T16:26:40.335Z,23.07
2022-12-19T16:29:20.636Z,22.47
2022-12-19T16:31:48.935Z,20.83
2022-12-19T16:34:20.916Z,22.17
2022-12-19T16:36:48.919Z,23.03
2022-12-19T16:39:17.035Z,23.13
2022-12-19T16:41:45.181Z,21.73
2022-12-19T16:44:19.535Z,22.10
2022-12-19T16:46:51.124Z,23.23
2022-12-19T16:49:25.406Z,23.97
2022-12-19T16:51:52.239Z,24.17
2022-12-19T16:54:20.175Z,23.00
2022-12-19T16:56:50.877Z,25.90
2022-12-19T16:59:22.561Z,23.40
2022-12-19T17:01:51.279Z,21.60
2022-12-19T17:04:21.767Z,22.87
2022-12-19T17:06:50.792Z,22.83
2022-12-19T17:09:23.521Z,21.00
2022-12-19T17:12:00.229Z,21.90
2022-12-19T17:14:32.563Z,20.33
2022-12-19T17:16:59.728Z,27.87
2022-12-19T17:19:32.818Z,20.63
2022-12-19T17:22:00.405Z,20.47
2022-12-19T17:24:27.627Z,19.33
2022-12-19T17:26:54.644Z,20.83
2022-12-19T17:29:21.633Z,20.23
2022-12-19T17:31:48.748Z,19.67
2022-12-19T17:34:29.454Z,20.90
2022-12-19T17:36:58.005Z,19.37
2022-12-19T17:39:27.139Z,19.13
2022-12-19T17:41:58.027Z,19.30
2022-12-19T17:44:24.784Z,21.43
2022-12-19T17:46:52.245Z,21.03
2022-12-19T17:49:31.310Z,19.27
2022-12-19T17:51:59.898Z,16.30
2022-12-19T17:54:28.191Z,17.30
2022-12-19T17:56:55.660Z,15.33
2022-12-19T17:59:22.440Z,14.13
2022-12-19T18:01:50.226Z,14.63
2022-12-19T18:04:20.407Z,13.87
2022-12-19T18:06:47.348Z,14.77
2022-12-19T18:09:23.072Z,14.13
2022-12-19T18:11:52.794Z,14.47
2022-12-19T18:14:20.996Z,14.63
2022-12-19T18:16:50.263Z,14.83
2022-12-19T18:19:24.735Z,14.77
2022-12-19T18:21:52.015Z,13.27
2022-12-19T18:24:19.208Z,12.60
2022-12-19T18:26:45.850Z,12.07
2022-12-19T18:29:13.517Z,12.13
2022-12-19T18:31:46.487Z,10.73
2022-12-19T18:34:25.191Z,9.47
2022-12-19T18:36:53.199Z,10.37
2022-12-19T18:39:24.623Z,10.90
2022-12-19T18:41:52.998Z,9.40
2022-12-19T18:44:20.793Z,9.37
2022-12-19T18:46:50.569Z,10.23
2022-12-19T18:49:17.636Z,10.77
2022-12-19T18:51:45.356Z,11.00
2022-12-19T18:54:15.003Z,11.47
2022-12-19T18:56:41.765Z,10.63
2022-12-19T18:59:09.087Z,10.57
2022-12-19T19:01:41.819Z,10.60
2022-12-19T19:04:12.115Z,10.90
2022-12-19T19:06:40.301Z,10.90
2022-12-19T19:09:15.975Z,10.97
2022-12-19T19:11:53.828Z,12.50
2022-12-19T19:14:21.323Z,10.87
2022-12-19T19:16:48.174Z,10.27
2022-12-19T19:19:17.869Z,10.70
2022-12-19T19:21:45.336Z,10.07
2022-12-19T19:24:22.856Z,10.33
2022-12-19T19:26:50.934Z,8.70
2022-12-19T19:29:20.001Z,9.27
2022-12-19T19:31:51.227Z,9.43
2022-12-19T19:34:29.499Z,9.33
2022-12-19T19:36:59.237Z,9.30
2022-12-19T19:39:27.860Z,9.80
2022-12-19T19:41:56.268Z,8.63
2022-12-19T19:44:24.475Z,9.90
2022-12-19T19:46:51.408Z,8.67
2022-12-19T19:49:21.253Z,9.43
2022-12-19T19:51:48.475Z,8.13
2022-12-19T19:54:15.670Z,8.20
2022-12-19T19:56:42.459Z,8.50
2022-12-19T19:59:09.204Z,8.50
2022-12-19T20:01:37.153Z,8.70
2022-12-19T20:04:05.033Z,9.97
2022-12-19T20:06:31.831Z,8.20
2022-12-19T20:08:58.764Z,7.50
2022-12-19T20:11:25.610Z,9.63
2022-12-19T20:13:53.299Z,10.27
2022-12-19T20:16:20.595Z,9.90
2022-12-19T20:18:52.445Z,8.43
2022-12-19T20:21:20.329Z,8.17
2022-12-19T20:23:47.916Z,9.23
2022-12-19T20:26:16.502Z,8.60
2022-12-19T20:28:48.910Z,9.73
2022-12-19T20:31:23.410Z,9.23
2022-12-19T20:33:53.398Z,9.30
2022-12-19T20:36:21.837Z,8.63
2022-12-19T20:38:49.311Z,8.73
2022-12-19T20:41:17.183Z,8.23
2022-12-19T20:43:44.966Z,9.37
2022-12-19T20:46:17.901Z,9.57
2022-12-19T20:48:46.274Z,8.40
2022-12-19T20:51:15.069Z,9.53
2022-12-19T20:53:42.909Z,9.20
2022-12-19T20:56:14.131Z,10.23
2022-12-19T20:58:41.291Z,10.30
2022-12-19T21:01:14.450Z,10.37
2022-12-19T21:03:42.513Z,9.40
2022-12-19T21:06:11.905Z,9.80
2022-12-19T21:08:39.089Z,9.37
2022-12-19T21:11:09.419Z,9.27
2022-12-19T21:13:38.402Z,9.00
2022-12-19T21:16:09.122Z,7.87
2022-12-19T21:18:38.650Z,8.80
2022-12-19T21:21:07.626Z,7.73
2022-12-19T21:23:34.732Z,8.53
2022-12-19T21:26:03.337Z,7.97
2022-12-19T21:28:30.837Z,8.60
2022-12-19T21:30:59.200Z,8.57
2022-12-19T21:33:26.818Z,8.63
2022-12-19T21:35:54.079Z,9.47
2022-12-19T21:38:21.255Z,9.37
2022-12-19T21:40:48.202Z,10.37
2022-12-19T21:43:15.650Z,9.40
2022-12-19T21:45:42.574Z,8.47
2022-12-19T21:48:09.632Z,8.37
2022-12-19T21:50:36.451Z,8.50
2022-12-19T21:53:03.256Z,9.20
2022-12-19T21:55:30.036Z,8.60
2022-12-19T21:57:57.317Z,8.37
2022-12-19T22:00:24.871Z,8.17
2022-12-19T22:03:12.616Z,8.40
2022-12-19T22:05:40.148Z,8.13
2022-12-19T22:08:09.551Z,7.97
2022-12-19T22:10:39.797Z,8.63
2022-12-19T22:13:06.532Z,9.47
2022-12-19T22:15:36.484Z,9.13
2022-12-19T22:18:03.204Z,9.17
2022-12-19T22:20:30.150Z,7.77
2022-12-19T22:22:56.904Z,8.63
2022-12-19T22:25:24.839Z,8.77
2022-12-19T22:27:51.712Z,8.77
2022-12-19T22:30:18.513Z,8.97
2022-12-19T22:32:45.414Z,8.90
2022-12-19T22:35:12.228Z,7.80
2022-12-19T22:37:39.871Z,8.30
2022-12-19T22:40:08.162Z,8.37
2022-12-19T22:42:34.998Z,8.33
2022-12-19T22:45:01.682Z,9.43
2022-12-19T22:47:28.421Z,8.53
2022-12-19T22:49:55.143Z,9.10
2022-12-19T22:52:24.465Z,9.27
2022-12-19T22:54:51.577Z,8.73
2022-12-19T22:57:18.287Z,8.90
2022-12-19T22:59:45.021Z,9.53
2022-12-19T23:02:12.010Z,8.93
2022-12-19T23:04:39.242Z,9.93
2022-12-19T23:07:05.983Z,8.93
2022-12-19T23:09:33.447Z,9.10
2022-12-19T23:12:00.124Z,9.47
2022-12-19T23:14:26.877Z,8.87
2022-12-19T23:16:53.698Z,8.77
2022-12-19T23:19:20.574Z,8.87
2022-12-19T23:21:47.960Z,9.13
2022-12-19T23:24:15.351Z,9.07
2022-12-19T23:26:42.206Z,8.93
2022-12-19T23:29:11.412Z,9.60
2022-12-19T23:31:40.660Z,8.97
2022-12-19T23:34:09.122Z,9.00
2022-12-19T23:39:23.931Z,8.87
2022-12-19T23:41:50.825Z,8.17
2022-12-19T23:44:18.057Z,7.73
2022-12-19T23:46:44.799Z,7.70
2022-12-19T23:49:11.514Z,8.27
2022-12-19T23:51:38.766Z,8.03
2022-12-19T23:54:05.617Z,8.43
2022-12-19T23:56:33.178Z,8.47
2022-12-19T23:59:00.525Z,8.47
